createdAt,value
2018-11-21T00:01:39.988Z,16.53
2018-11-21T00:04:08.845Z,16.33
2018-11-21T00:06:37.414Z,16.70
2018-11-21T00:09:08.496Z,15.58
2018-11-21T00:11:37.344Z,16.00
2018-11-21T00:14:06.300Z,15.13
2018-11-21T00:16:34.966Z,15.60
2018-11-21T00:19:03.802Z,15.83
2018-11-21T00:21:32.377Z,15.32
2018-11-21T00:24:00.923Z,15.95
2018-11-21T00:26:29.803Z,15.68
2018-11-21T00:28:58.676Z,16.63
2018-11-21T00:31:27.557Z,16.75
2018-11-21T00:33:56.105Z,15.80
2018-11-21T00:36:24.985Z,17.02
2018-11-21T00:38:53.537Z,17.00
2018-11-21T00:41:22.091Z,18.00
2018-11-21T00:43:50.685Z,16.85
2018-11-21T00:46:19.241Z,17.60
2018-11-21T00:48:47.932Z,18.07
2018-11-21T00:51:16.762Z,17.60
2018-11-21T00:53:45.628Z,18.70
2018-11-21T00:56:14.170Z,17.50
2018-11-21T00:58:43.052Z,18.40
2018-11-21T01:01:11.565Z,18.40
2018-11-21T01:03:40.101Z,18.17
2018-11-21T01:06:08.681Z,17.73
2018-11-21T01:08:37.230Z,17.47
2018-11-21T01:11:05.991Z,18.00
2018-11-21T01:13:34.569Z,18.37
2018-11-21T01:16:04.242Z,18.17
2018-11-21T01:18:32.261Z,18.47
2018-11-21T01:21:00.841Z,18.57
2018-11-21T01:23:31.472Z,18.42
2018-11-21T01:26:00.029Z,18.50
2018-11-21T01:28:28.870Z,18.30
2018-11-21T01:30:57.433Z,17.33
2018-11-21T01:33:25.989Z,18.07
2018-11-21T01:35:54.822Z,18.00
2018-11-21T01:38:23.365Z,18.27
2018-11-21T01:40:51.887Z,18.10
2018-11-21T01:43:22.592Z,18.40
2018-11-21T01:45:51.440Z,19.67
2018-11-21T01:48:19.982Z,18.73
2018-11-21T01:50:48.572Z,18.47
2018-11-21T01:53:17.147Z,18.95
2018-11-21T01:55:45.707Z,19.17
2018-11-21T01:58:14.288Z,18.90
2018-11-21T02:00:42.861Z,19.70
2018-11-21T02:03:11.429Z,19.43
2018-11-21T02:05:39.984Z,18.85
2018-11-21T02:08:08.569Z,17.70
2018-11-21T02:10:37.148Z,19.45
2018-11-21T02:13:06.030Z,19.00
2018-11-21T02:15:34.611Z,19.23
2018-11-21T02:18:03.465Z,19.73
2018-11-21T02:20:32.044Z,19.50
2018-11-21T02:23:00.914Z,18.90
2018-11-21T02:25:29.493Z,19.30
2018-11-21T02:27:58.032Z,18.90
2018-11-21T02:30:26.887Z,19.53
2018-11-21T02:32:56.487Z,19.75
2018-11-21T02:35:25.037Z,18.83
2018-11-21T02:37:53.906Z,18.43
2018-11-21T02:40:22.477Z,19.37
2018-11-21T02:42:51.032Z,19.20
2018-11-21T02:45:19.872Z,19.53
2018-11-21T02:47:48.716Z,18.67
2018-11-21T02:50:17.601Z,19.40
2018-11-21T02:52:46.185Z,18.40
2018-11-21T02:55:14.757Z,19.32
2018-11-21T02:57:43.314Z,19.37
2018-11-21T03:00:20.213Z,18.45
2018-11-21T03:02:48.884Z,19.33
2018-11-21T03:05:17.714Z,18.90
2018-11-21T03:07:56.362Z,18.93
2018-11-21T03:10:25.809Z,19.60
2018-11-21T03:12:54.549Z,18.98
2018-11-21T03:15:24.534Z,18.62
2018-11-21T03:17:53.099Z,20.55
2018-11-21T03:20:21.642Z,18.87
2018-11-21T03:22:50.525Z,18.75
2018-11-21T03:25:19.062Z,19.47
2018-11-21T03:27:47.905Z,20.57
2018-11-21T03:30:16.460Z,19.77
2018-11-21T03:32:44.993Z,20.37
2018-11-21T03:35:13.559Z,18.85
2018-11-21T03:37:42.106Z,19.55
2018-11-21T03:40:12.035Z,20.10
2018-11-21T03:42:41.092Z,20.40
2018-11-21T03:45:10.859Z,19.25
2018-11-21T03:47:39.426Z,19.13
2018-11-21T03:50:09.658Z,19.73
2018-11-21T03:52:38.591Z,19.65
2018-11-21T03:55:08.034Z,19.05
2018-11-21T03:57:36.926Z,19.82
2018-11-21T04:00:07.512Z,19.25
2018-11-21T04:02:36.050Z,18.97
2018-11-21T04:05:05.350Z,19.17
2018-11-21T04:07:33.943Z,18.67
2018-11-21T04:10:02.491Z,19.70
2018-11-21T04:12:31.054Z,19.95
2018-11-21T04:14:59.646Z,19.10
2018-11-21T04:17:28.785Z,19.80
2018-11-21T04:19:57.354Z,19.23
2018-11-21T04:22:25.895Z,18.90
2018-11-21T04:24:54.475Z,19.82
2018-11-21T04:27:23.013Z,19.33
2018-11-21T04:29:51.588Z,19.17
2018-11-21T04:32:20.183Z,19.07
2018-11-21T04:34:48.768Z,19.73
2018-11-21T04:37:17.306Z,18.55
2018-11-21T04:39:46.228Z,18.87
2018-11-21T04:42:14.739Z,19.95
2018-11-21T04:44:43.304Z,19.37
2018-11-21T04:47:11.853Z,19.90
2018-11-21T04:49:40.436Z,18.37
2018-11-21T04:52:09.326Z,18.30
2018-11-21T04:54:37.931Z,17.37
2018-11-21T04:57:06.483Z,18.07
2018-11-21T04:59:35.368Z,18.90
2018-11-21T05:02:04.048Z,18.80
2018-11-21T05:04:32.624Z,17.85
2018-11-21T05:07:01.215Z,17.52
2018-11-21T05:09:29.749Z,18.45
2018-11-21T05:11:58.335Z,18.05
2018-11-21T05:14:27.199Z,18.70
2018-11-21T05:16:55.768Z,18.75
2018-11-21T05:19:24.334Z,17.50
2018-11-21T05:21:53.227Z,18.65
2018-11-21T05:24:21.767Z,17.62
2018-11-21T05:26:50.395Z,18.35
2018-11-21T05:29:18.967Z,17.20
2018-11-21T05:31:47.545Z,18.05
2018-11-21T05:34:16.118Z,18.62
2018-11-21T05:36:44.666Z,18.35
2018-11-21T05:39:13.686Z,17.90
2018-11-21T05:41:42.246Z,17.98
2018-11-21T05:44:13.529Z,17.70
2018-11-21T05:46:42.115Z,22.02
2018-11-21T05:49:10.732Z,23.45
2018-11-21T05:51:39.310Z,25.90
2018-11-21T05:54:08.216Z,23.15
2018-11-21T05:56:36.770Z,19.77
2018-11-21T05:59:05.449Z,18.85
2018-11-21T06:01:34.030Z,18.70
2018-11-21T06:04:02.586Z,18.10
2018-11-21T06:06:31.149Z,20.08
2018-11-21T06:09:00.220Z,20.68
2018-11-21T06:11:29.081Z,19.48
2018-11-21T06:13:57.664Z,20.77
2018-11-21T06:16:26.224Z,19.70
2018-11-21T06:18:54.821Z,20.02
2018-11-21T06:21:23.375Z,20.65
2018-11-21T06:23:51.941Z,20.32
2018-11-21T06:26:20.823Z,20.30
2018-11-21T06:28:49.695Z,20.88
2018-11-21T06:31:18.279Z,22.20
2018-11-21T06:33:46.848Z,21.12
2018-11-21T06:36:15.422Z,19.92
2018-11-21T06:38:44.201Z,22.20
2018-11-21T06:41:12.775Z,20.00
2018-11-21T06:43:43.685Z,21.25
2018-11-21T06:46:12.256Z,19.98
2018-11-21T06:48:41.038Z,19.50
2018-11-21T06:51:09.670Z,19.20
2018-11-21T06:53:38.162Z,19.10
2018-11-21T06:56:07.730Z,18.07
2018-11-21T06:58:36.314Z,19.40
2018-11-21T07:01:07.247Z,19.45
2018-11-21T07:03:35.786Z,19.02
2018-11-21T07:06:04.657Z,18.92
2018-11-21T07:08:33.218Z,18.90
2018-11-21T07:11:02.048Z,19.15
2018-11-21T07:13:30.627Z,18.82
2018-11-21T07:15:59.160Z,18.62
2018-11-21T07:18:27.717Z,19.02
2018-11-21T07:20:56.617Z,19.30
2018-11-21T07:23:25.481Z,18.32
2018-11-21T07:25:55.026Z,20.85
2018-11-21T07:28:23.602Z,18.70
2018-11-21T07:30:52.165Z,18.80
2018-11-21T07:33:20.729Z,18.32
2018-11-21T07:35:49.274Z,18.57
2018-11-21T07:38:17.858Z,18.60
2018-11-21T07:40:46.415Z,20.27
2018-11-21T07:43:15.294Z,21.40
2018-11-21T07:45:46.333Z,19.57
2018-11-21T07:48:20.329Z,19.02
2018-11-21T07:50:43.465Z,19.20
2018-11-21T07:53:12.003Z,18.52
2018-11-21T07:55:40.610Z,17.50
2018-11-21T07:58:11.401Z,18.15
2018-11-21T08:01:22.064Z,18.60
2018-11-21T08:03:58.501Z,18.77
2018-11-21T08:06:57.794Z,18.35
2018-11-21T08:10:00.160Z,19.05
2018-11-21T08:12:50.467Z,19.77
2018-11-21T08:15:49.923Z,19.95
2018-11-21T08:18:35.745Z,19.23
2018-11-21T08:21:26.911Z,19.17
2018-11-21T08:24:20.302Z,18.73
2018-11-21T08:27:13.601Z,19.52
2018-11-21T08:29:42.489Z,19.92
2018-11-21T08:32:11.418Z,20.27
2018-11-21T08:34:40.009Z,20.80
2018-11-21T08:37:09.733Z,21.80
2018-11-21T08:39:38.292Z,21.62
2018-11-21T08:42:06.891Z,22.32
2018-11-21T08:44:35.499Z,21.27
2018-11-21T08:47:04.047Z,20.65
2018-11-21T08:49:32.630Z,21.57
2018-11-21T08:52:01.395Z,21.95
2018-11-21T08:54:30.230Z,21.90
2018-11-21T08:56:58.808Z,22.32
2018-11-21T08:59:27.400Z,22.70
2018-11-21T09:01:56.270Z,22.25
2018-11-21T09:04:24.843Z,21.87
2018-11-21T09:06:53.440Z,21.93
2018-11-21T09:09:22.002Z,22.25
2018-11-21T09:11:50.869Z,21.73
2018-11-21T09:14:19.745Z,22.07
2018-11-21T09:16:48.305Z,21.55
2018-11-21T09:19:17.207Z,21.62
2018-11-21T09:21:46.167Z,22.13
2018-11-21T09:24:14.774Z,23.02
2018-11-21T09:26:43.610Z,23.47
2018-11-21T09:29:12.219Z,22.95
2018-11-21T09:31:40.786Z,23.12
2018-11-21T09:34:09.366Z,23.20
2018-11-21T09:36:37.915Z,22.07
2018-11-21T09:39:09.151Z,24.20
2018-11-21T09:41:38.055Z,23.18
2018-11-21T09:44:06.712Z,23.10
2018-11-21T09:46:35.291Z,24.85
2018-11-21T09:49:04.199Z,24.32
2018-11-21T09:51:35.115Z,24.70
2018-11-21T09:54:03.712Z,24.30
2018-11-21T09:56:32.585Z,23.38
2018-11-21T09:59:01.586Z,22.93
2018-11-21T10:02:06.435Z,23.60
2018-11-21T10:04:35.330Z,23.90
2018-11-21T10:07:03.877Z,22.50
2018-11-21T10:09:37.558Z,22.40
2018-11-21T10:12:06.214Z,22.65
2018-11-21T10:14:34.802Z,22.77
2018-11-21T10:17:03.345Z,22.05
2018-11-21T10:19:31.943Z,23.40
2018-11-21T10:22:00.498Z,23.10
2018-11-21T10:24:29.091Z,22.55
2018-11-21T10:26:58.626Z,22.48
2018-11-21T10:29:27.247Z,23.27
2018-11-21T10:31:55.813Z,23.85
2018-11-21T10:34:24.693Z,22.70
2018-11-21T10:36:53.286Z,23.98
2018-11-21T10:39:21.874Z,24.57
2018-11-21T10:41:50.476Z,22.50
2018-11-21T10:44:19.032Z,22.80
2018-11-21T10:46:47.870Z,23.20
2018-11-21T10:49:16.450Z,22.80
2018-11-21T10:51:45.341Z,22.05
2018-11-21T10:54:13.894Z,23.62
2018-11-21T10:56:43.139Z,23.00
2018-11-21T10:59:12.218Z,22.73
2018-11-21T11:01:58.202Z,23.15
2018-11-21T11:04:39.658Z,21.55
2018-11-21T11:07:25.831Z,22.40
2018-11-21T11:10:12.019Z,21.20
2018-11-21T11:13:05.145Z,23.15
2018-11-21T11:15:52.733Z,21.68
2018-11-21T11:18:32.668Z,21.42
2018-11-21T11:21:18.840Z,20.50
2018-11-21T11:24:24.448Z,21.05
2018-11-21T11:27:14.946Z,20.20
2018-11-21T11:30:08.454Z,21.00
2018-11-21T11:32:59.012Z,21.65
2018-11-21T11:36:01.792Z,18.98
2018-11-21T11:39:04.503Z,18.90
2018-11-21T11:42:11.429Z,17.95
2018-11-21T11:44:57.661Z,19.10
2018-11-21T11:47:43.734Z,19.32
2018-11-21T11:50:29.730Z,18.92
2018-11-21T11:53:29.308Z,18.92
2018-11-21T11:56:15.299Z,18.92
2018-11-21T11:59:01.605Z,18.23
2018-11-21T12:01:47.486Z,18.12
2018-11-21T12:04:24.415Z,16.32
2018-11-21T12:07:15.046Z,15.73
2018-11-21T12:10:18.123Z,17.37
2018-11-21T12:13:04.270Z,16.90
2018-11-21T12:15:43.462Z,15.75
2018-11-21T12:18:29.743Z,16.47
2018-11-21T12:21:15.891Z,16.87
2018-11-21T12:24:06.432Z,15.97
2018-11-21T12:26:47.772Z,16.37
2018-11-21T12:29:42.062Z,15.70
2018-11-21T12:32:26.798Z,15.73
2018-11-21T12:35:25.995Z,15.93
2018-11-21T12:38:11.796Z,16.30
2018-11-21T12:41:11.009Z,15.57
